Time;durP1;ratioP1;P1;durP2;ratioP2;P2;SDS_P1;SDS_P2;PMS_P1;PMS_P2;Temp;Humidity;BMP_temperature;BMP_pressure;BME280_temperature;BME280_humidity;BME280_pressure;Samples;Min_cycle;Max_cycle;Signal;HPM_P1;HPM_P2
2023/10/12 00:02:13;;;;;;;;;;;19.60;99.90;;;;;;7334129;19;108992;-73
2023/10/12 00:05:02;;;;;;;;;;;19.60;99.90;;;;;;7334174;19;108521;-75
2023/10/12 00:07:45;;;;;;;;;;;19.60;99.90;;;;;;7340996;19;109213;-77
2023/10/12 00:12:47;;;;;;;;;;;19.60;99.90;;;;;;7335578;19;109508;-77
2023/10/12 00:17:53;;;;;;;;;;;19.60;99.90;;;;;;7332923;19;108667;-76
2023/10/12 00:20:38;;;;;;;;;;;19.50;99.90;;;;;;7334782;19;109355;-77
2023/10/12 00:23:15;;;;;;;;;;;19.50;99.90;;;;;;7330803;19;110612;-73
2023/10/12 00:25:47;;;;;;;;;;;19.50;99.90;;;;;;7331027;19;108952;-74
2023/10/12 00:28:20;;;;;;;;;;;19.50;99.90;;;;;;7336830;19;109749;-73
2023/10/12 00:30:49;;;;;;;;;;;19.50;99.90;;;;;;7339786;19;109966;-73
2023/10/12 00:33:20;;;;;;;;;;;19.50;99.90;;;;;;7337400;19;110835;-73
2023/10/12 00:35:49;;;;;;;;;;;19.40;99.90;;;;;;7333941;19;110200;-73
2023/10/12 00:38:17;;;;;;;;;;;19.40;99.90;;;;;;7337110;19;108855;-74
2023/10/12 00:40:48;;;;;;;;;;;19.40;99.90;;;;;;7336679;19;109323;-73
2023/10/12 00:43:15;;;;;;;;;;;19.40;99.90;;;;;;7338083;19;110126;-72
2023/10/12 00:45:43;;;;;;;;;;;19.30;99.90;;;;;;7337190;19;109156;-73
2023/10/12 00:48:15;;;;;;;;;;;19.30;99.90;;;;;;7334065;19;110560;-74
2023/10/12 00:50:47;;;;;;;;;;;19.30;99.90;;;;;;7335485;19;111203;-73
2023/10/12 00:53:22;;;;;;;;;;;19.30;99.90;;;;;;7339059;19;108741;-72
2023/10/12 00:55:50;;;;;;;;;;;19.20;99.90;;;;;;7333465;19;113218;-74
2023/10/12 00:58:17;;;;;;;;;;;19.20;99.90;;;;;;7335538;19;109200;-73
2023/10/12 01:00:46;;;;;;;;;;;19.10;99.90;;;;;;7336211;19;109189;-73
2023/10/12 01:03:35;;;;;;;;;;;19.10;99.90;;;;;;7332395;19;110211;-72
2023/10/12 01:06:20;;;;;;;;;;;19.10;99.90;;;;;;7336315;19;109865;-73
2023/10/12 01:08:48;;;;;;;;;;;19.00;99.90;;;;;;7331024;19;109601;-73
2023/10/12 01:11:33;;;;;;;;;;;19.00;99.90;;;;;;7331363;19;110700;-73
2023/10/12 01:19:20;;;;;;;;;;;18.90;99.90;;;;;;7333005;19;110321;-75
2023/10/12 01:21:49;;;;;;;;;;;18.90;99.90;;;;;;7336987;19;109374;-73
2023/10/12 01:24:16;;;;;;;;;;;18.80;99.90;;;;;;7330837;19;110482;-73
2023/10/12 01:26:44;;;;;;;;;;;18.80;99.90;;;;;;7338369;19;109106;-73
2023/10/12 01:29:19;;;;;;;;;;;18.80;99.90;;;;;;7334930;19;109041;-73
2023/10/12 01:31:52;;;;;;;;;;;18.80;99.90;;;;;;7336661;19;110714;-74
2023/10/12 01:34:24;;;;;;;;;;;18.80;99.90;;;;;;7335282;19;108908;-73
2023/10/12 01:36:52;;;;;;;;;;;18.80;99.90;;;;;;7338059;19;111361;-73
2023/10/12 01:39:19;;;;;;;;;;;18.70;99.90;;;;;;7335639;19;109114;-74
2023/10/12 01:41:47;;;;;;;;;;;18.70;99.90;;;;;;7334912;19;111511;-73
2023/10/12 01:44:18;;;;;;;;;;;18.70;99.90;;;;;;7332152;19;110499;-74
2023/10/12 01:46:49;;;;;;;;;;;18.70;99.90;;;;;;7336137;19;109341;-73
2023/10/12 01:49:20;;;;;;;;;;;18.70;99.90;;;;;;7330089;19;111778;-73
2023/10/12 01:51:48;;;;;;;;;;;18.60;99.90;;;;;;7331836;19;111724;-73
2023/10/12 01:54:24;;;;;;;;;;;18.60;99.90;;;;;;7332252;19;109121;-73
2023/10/12 01:56:52;;;;;;;;;;;18.60;99.90;;;;;;7334016;19;109299;-73
2023/10/12 01:59:25;;;;;;;;;;;18.60;99.90;;;;;;7340743;19;110166;-73
2023/10/12 02:02:13;;;;;;;;;;;18.60;99.90;;;;;;7333237;19;112934;-73
2023/10/12 02:04:42;;;;;;;;;;;18.50;99.90;;;;;;7324942;19;112883;-73
2023/10/12 02:07:10;;;;;;;;;;;18.50;99.90;;;;;;7332622;19;110864;-74
2023/10/12 02:09:37;;;;;;;;;;;18.50;99.90;;;;;;7331003;19;109130;-73
2023/10/12 02:12:14;;;;;;;;;;;18.50;99.90;;;;;;7331275;19;109254;-74
2023/10/12 02:14:41;;;;;;;;;;;18.50;99.90;;;;;;7336195;19;109210;-73
2023/10/12 02:17:11;;;;;;;;;;;18.40;99.90;;;;;;7334163;19;109916;-74
2023/10/12 02:19:42;;;;;;;;;;;18.40;99.90;;;;;;7332471;19;110202;-73
2023/10/12 02:22:24;;;;;;;;;;;18.40;99.90;;;;;;7337213;19;108536;-73
2023/10/12 02:25:00;;;;;;;;;;;18.40;99.90;;;;;;7330190;19;110465;-73
2023/10/12 02:27:27;;;;;;;;;;;18.40;99.90;;;;;;7330952;19;109766;-74
2023/10/12 02:29:56;;;;;;;;;;;18.40;99.90;;;;;;7334319;19;108448;-74
2023/10/12 02:32:24;;;;;;;;;;;18.40;99.90;;;;;;7328229;19;109090;-75
2023/10/12 02:34:56;;;;;;;;;;;18.30;99.90;;;;;;7331794;19;108518;-73
2023/10/12 02:37:24;;;;;;;;;;;18.30;99.90;;;;;;7331149;19;111969;-73
2023/10/12 02:39:54;;;;;;;;;;;18.40;99.90;;;;;;7322807;19;111400;-73
2023/10/12 02:42:22;;;;;;;;;;;18.30;99.90;;;;;;7333478;19;109271;-74
2023/10/12 02:47:24;;;;;;;;;;;18.40;99.90;;;;;;7329242;19;108992;-73
2023/10/12 02:50:29;;;;;;;;;;;18.40;99.90;;;;;;7332269;19;109323;-73
2023/10/12 02:52:51;;;;;;;;;;;18.40;99.90;;;;;;7329593;19;110079;-73
2023/10/12 02:57:54;;;;;;;;;;;18.30;99.90;;;;;;7331833;19;108994;-73
2023/10/12 03:00:30;;;;;;;;;;;18.30;99.90;;;;;;7327154;19;109464;-72
2023/10/12 03:03:05;;;;;;;;;;;18.30;99.90;;;;;;7331978;19;108985;-74
2023/10/12 03:05:47;;;;;;;;;;;18.30;99.90;;;;;;7333625;19;109060;-73
2023/10/12 03:08:16;;;;;;;;;;;18.30;99.90;;;;;;7333846;19;109514;-73
2023/10/12 03:11:03;;;;;;;;;;;18.30;99.90;;;;;;7332102;19;109439;-72
2023/10/12 03:13:35;;;;;;;;;;;18.30;99.90;;;;;;7331286;19;109397;-73
2023/10/12 03:16:11;;;;;;;;;;;18.30;99.90;;;;;;7329821;19;108905;-73
2023/10/12 03:18:38;;;;;;;;;;;18.20;99.90;;;;;;7338562;19;111208;-72
2023/10/12 03:21:11;;;;;;;;;;;18.20;99.90;;;;;;7338948;19;110286;-74
2023/10/12 03:23:40;;;;;;;;;;;18.20;99.90;;;;;;7337330;19;108794;-73
2023/10/12 03:26:20;;;;;;;;;;;18.20;99.90;;;;;;7336464;19;110286;-73
2023/10/12 03:28:50;;;;;;;;;;;18.20;99.90;;;;;;7338813;19;111037;-73
2023/10/12 03:31:23;;;;;;;;;;;18.20;99.90;;;;;;7340681;19;109660;-73
2023/10/12 03:33:54;;;;;;;;;;;18.20;99.90;;;;;;7333621;19;111711;-73
2023/10/12 03:36:23;;;;;;;;;;;18.20;99.90;;;;;;7338555;19;109538;-73
2023/10/12 03:44:25;;;;;;;;;;;18.20;99.90;;;;;;7337818;19;108918;-72
2023/10/12 03:47:00;;;;;;;;;;;18.20;99.90;;;;;;7336689;19;110094;-73
2023/10/12 03:49:43;;;;;;;;;;;18.30;99.90;;;;;;7335795;19;109700;-73
2023/10/12 03:52:14;;;;;;;;;;;18.20;99.90;;;;;;7340521;19;112846;-73
2023/10/12 04:02:42;;;;;;;;;;;18.20;99.90;;;;;;7336672;19;114198;-75
2023/10/12 04:05:16;;;;;;;;;;;18.10;99.90;;;;;;7334410;19;109815;-74
2023/10/12 04:19:29;;;;;;;;;;;18.10;99.90;;;;;;7337104;19;108396;-75
2023/10/12 04:21:23;;;;;;;;;;;18.10;99.90;;;;;;7332311;19;109473;-77
2023/10/12 04:29:39;;;;;;;;;;;18.00;99.90;;;;;;7332457;19;110957;-76
2023/10/12 04:32:11;;;;;;;;;;;18.00;99.90;;;;;;7327933;19;109805;-77
2023/10/12 04:34:48;;;;;;;;;;;18.00;99.90;;;;;;7334364;19;109419;-74
2023/10/12 04:37:25;;;;;;;;;;;18.00;99.90;;;;;;7329732;19;110821;-75
2023/10/12 04:40:14;;;;;;;;;;;18.00;99.90;;;;;;7337265;19;111046;-74
2023/10/12 04:42:45;;;;;;;;;;;18.00;99.90;;;;;;7333224;19;109213;-74
2023/10/12 04:47:46;;;;;;;;;;;17.90;99.90;;;;;;7329945;19;110262;-72
2023/10/12 04:50:27;;;;;;;;;;;17.90;99.90;;;;;;7327829;19;113447;-74
2023/10/12 04:53:11;;;;;;;;;;;17.90;99.90;;;;;;7331667;19;109180;-72
2023/10/12 04:55:47;;;;;;;;;;;17.90;99.90;;;;;;7329410;19;109980;-72
2023/10/12 04:58:30;;;;;;;;;;;17.90;99.90;;;;;;7327496;19;110729;-73
2023/10/12 05:01:16;;;;;;;;;;;17.90;99.90;;;;;;7331400;19;110149;-72
2023/10/12 05:04:04;;;;;;;;;;;17.90;99.90;;;;;;7339101;19;109403;-72
2023/10/12 05:06:34;;;;;;;;;;;17.90;99.90;;;;;;7332910;19;110625;-72
2023/10/12 05:09:10;;;;;;;;;;;17.90;99.90;;;;;;7334117;19;111143;-72
2023/10/12 05:11:38;;;;;;;;;;;17.80;99.90;;;;;;7334530;19;110229;-73
2023/10/12 05:14:15;;;;;;;;;;;17.80;99.90;;;;;;7331206;19;109146;-72
2023/10/12 05:16:45;;;;;;;;;;;17.80;99.90;;;;;;7333975;19;113110;-73
2023/10/12 05:19:12;;;;;;;;;;;17.80;99.90;;;;;;7331400;19;113275;-72
2023/10/12 05:21:40;;;;;;;;;;;17.80;99.90;;;;;;7333648;19;109298;-73
2023/10/12 05:24:08;;;;;;;;;;;17.80;99.90;;;;;;7333022;19;109407;-73
2023/10/12 05:26:36;;;;;;;;;;;17.80;99.90;;;;;;7340706;19;109987;-73
2023/10/12 05:32:05;;;;;;;;;;;17.80;99.90;;;;;;7336517;19;109259;-73
2023/10/12 05:34:44;;;;;;;;;;;17.80;99.90;;;;;;7332507;19;109612;-73
2023/10/12 05:39:51;;;;;;;;;;;17.80;99.90;;;;;;7337861;19;109335;-72
2023/10/12 05:42:24;;;;;;;;;;;17.80;99.90;;;;;;7332876;19;110602;-73
2023/10/12 05:44:53;;;;;;;;;;;17.80;99.90;;;;;;7334331;19;108622;-72
2023/10/12 05:47:30;;;;;;;;;;;17.80;99.90;;;;;;7336595;19;109181;-74
2023/10/12 05:49:58;;;;;;;;;;;17.80;99.90;;;;;;7331775;19;110084;-72
2023/10/12 05:52:25;;;;;;;;;;;17.80;99.90;;;;;;7329811;19;109099;-67
2023/10/12 05:54:57;;;;;;;;;;;17.80;99.90;;;;;;7331153;19;109153;-67
2023/10/12 05:57:29;;;;;;;;;;;17.80;99.90;;;;;;7330374;19;108613;-67
2023/10/12 06:00:00;;;;;;;;;;;17.80;99.90;;;;;;7330538;19;109413;-68
2023/10/12 06:02:28;;;;;;;;;;;17.80;99.90;;;;;;7335401;19;109189;-67
2023/10/12 06:04:56;;;;;;;;;;;17.80;99.90;;;;;;7331820;19;109141;-68
2023/10/12 06:07:24;;;;;;;;;;;17.80;99.90;;;;;;7334987;19;109847;-67
2023/10/12 06:09:53;;;;;;;;;;;17.90;99.90;;;;;;7338104;19;109254;-68
2023/10/12 06:12:24;;;;;;;;;;;17.80;99.90;;;;;;7331621;19;110543;-68
2023/10/12 06:14:54;;;;;;;;;;;17.80;99.90;;;;;;7332737;19;109818;-68
2023/10/12 06:17:49;;;;;;;;;;;17.80;99.90;;;;;;7331154;19;108580;-68
2023/10/12 06:20:15;;;;;;;;;;;17.80;99.90;;;;;;7333025;19;109326;-68
2023/10/12 06:22:42;;;;;;;;;;;17.90;99.90;;;;;;7331585;19;109110;-68
2023/10/12 06:25:17;;;;;;;;;;;17.80;99.90;;;;;;7333036;19;109119;-68
2023/10/12 06:27:45;;;;;;;;;;;17.90;99.90;;;;;;7331793;19;109875;-67
2023/10/12 06:30:18;;;;;;;;;;;17.80;99.90;;;;;;7332299;19;109144;-67
2023/10/12 06:32:48;;;;;;;;;;;17.80;99.90;;;;;;7338051;19;108743;-67
2023/10/12 06:45:54;;;;;;;;;;;17.80;99.90;;;;;;7333069;19;108967;-69
2023/10/12 06:51:11;;;;;;;;;;;17.90;99.90;;;;;;7331587;19;109754;-68
2023/10/12 06:53:40;;;;;;;;;;;17.80;99.90;;;;;;7338525;19;108364;-68
2023/10/12 06:59:09;;;;;;;;;;;17.90;99.90;;;;;;7338337;19;108683;-68
2023/10/12 07:01:43;;;;;;;;;;;17.90;99.90;;;;;;7339413;19;109111;-68
2023/10/12 07:04:14;;;;;;;;;;;17.90;99.90;;;;;;7340848;19;110419;-68
2023/10/12 07:09:44;;;;;;;;;;;17.80;99.90;;;;;;7337810;19;111654;-69
2023/10/12 07:12:12;;;;;;;;;;;17.80;99.90;;;;;;7336076;19;109629;-70
2023/10/12 07:14:46;;;;;;;;;;;17.80;99.90;;;;;;7340228;19;108445;-68
2023/10/12 07:17:14;;;;;;;;;;;17.90;99.90;;;;;;7338258;19;109245;-69
2023/10/12 07:19:50;;;;;;;;;;;17.90;99.90;;;;;;7342663;19;109239;-69
2023/10/12 07:22:18;;;;;;;;;;;17.90;99.90;;;;;;7338302;19;109676;-69
2023/10/12 07:24:52;;;;;;;;;;;17.90;99.90;;;;;;7339579;19;110549;-68
2023/10/12 07:27:22;;;;;;;;;;;17.90;99.90;;;;;;7335171;19;108885;-69
2023/10/12 07:30:10;;;;;;;;;;;17.90;99.90;;;;;;7340077;19;108495;-70
2023/10/12 07:32:54;;;;;;;;;;;17.90;99.90;;;;;;7339121;19;109512;-68
2023/10/12 07:35:42;;;;;;;;;;;17.90;99.90;;;;;;7336074;19;110204;-68
2023/10/12 07:38:35;;;;;;;;;;;18.00;99.90;;;;;;7339477;19;110741;-68
2023/10/12 07:41:00;;;;;;;;;;;18.00;99.90;;;;;;7339614;19;109263;-69
2023/10/12 07:43:32;;;;;;;;;;;18.00;99.90;;;;;;7343694;19;108475;-69
2023/10/12 07:46:13;;;;;;;;;;;18.00;99.90;;;;;;7340508;19;110607;-68
2023/10/12 07:48:44;;;;;;;;;;;18.00;99.90;;;;;;7338418;19;109592;-69
2023/10/12 07:51:15;;;;;;;;;;;18.00;99.90;;;;;;7337139;19;109380;-69
2023/10/12 07:53:45;;;;;;;;;;;18.00;99.90;;;;;;7336518;19;110505;-68
2023/10/12 07:56:16;;;;;;;;;;;18.00;99.90;;;;;;7338567;19;113388;-68
2023/10/12 07:58:44;;;;;;;;;;;18.10;99.90;;;;;;7335001;19;108815;-68
2023/10/12 08:03:59;;;;;;;;;;;18.10;99.90;;;;;;7342232;19;109717;-68
2023/10/12 08:06:42;;;;;;;;;;;18.10;99.90;;;;;;7332592;19;112183;-68
2023/10/12 08:11:53;;;;;;;;;;;18.20;99.90;;;;;;7338800;19;108385;-68
2023/10/12 08:19:43;;;;;;;;;;;18.40;99.90;;;;;;7339319;19;110156;-69
2023/10/12 08:22:29;;;;;;;;;;;18.40;99.90;;;;;;7334864;19;111829;-69
2023/10/12 08:24:59;;;;;;;;;;;18.50;99.90;;;;;;7335408;19;108511;-69
2023/10/12 08:27:26;;;;;;;;;;;18.50;99.90;;;;;;7342539;19;109100;-70
2023/10/12 08:32:33;;;;;;;;;;;18.60;99.90;;;;;;7334475;19;109031;-69
2023/10/12 08:37:35;;;;;;;;;;;18.60;99.90;;;;;;7334742;19;108909;-73
2023/10/12 08:45:11;;;;;;;;;;;18.70;99.90;;;;;;7335263;19;109308;-76
2023/10/12 08:52:53;;;;;;;;;;;18.70;99.90;;;;;;7335026;19;108582;-72
2023/10/12 08:55:24;;;;;;;;;;;18.70;99.90;;;;;;7334620;19;109523;-70
2023/10/12 08:58:01;;;;;;;;;;;18.80;99.90;;;;;;7334251;19;109790;-72
2023/10/12 09:03:14;;;;;;;;;;;18.90;99.90;;;;;;7336169;19;110711;-69
2023/10/12 09:05:46;;;;;;;;;;;18.90;99.90;;;;;;7336447;19;109548;-73
2023/10/12 09:10:51;;;;;;;;;;;19.00;99.90;;;;;;7334002;19;109236;-69
2023/10/12 09:13:19;;;;;;;;;;;19.10;99.90;;;;;;7341550;19;108733;-70
2023/10/12 09:15:48;;;;;;;;;;;19.10;99.90;;;;;;7332555;19;112838;-69
2023/10/12 09:18:18;;;;;;;;;;;19.10;99.90;;;;;;7334704;19;108927;-69
2023/10/12 09:21:16;;;;;;;;;;;19.10;99.90;;;;;;7333584;19;110685;-69
2023/10/12 09:23:58;;;;;;;;;;;19.20;99.90;;;;;;7334240;19;109155;-69
2023/10/12 09:26:33;;;;;;;;;;;19.20;99.90;;;;;;7333641;19;109097;-69
2023/10/12 09:37:06;;;;;;;;;;;19.40;99.90;;;;;;7339603;19;108585;-69
2023/10/12 09:39:34;;;;;;;;;;;19.40;99.90;;;;;;7333405;19;108682;-69
2023/10/12 09:42:09;;;;;;;;;;;19.50;99.90;;;;;;7330394;19;110155;-69
2023/10/12 09:44:39;;;;;;;;;;;19.50;99.90;;;;;;7332275;19;110473;-69
2023/10/12 09:47:23;;;;;;;;;;;19.50;99.90;;;;;;7331792;19;110110;-69
2023/10/12 09:49:57;;;;;;;;;;;19.50;99.90;;;;;;7332081;19;109056;-69
2023/10/12 09:52:46;;;;;;;;;;;19.60;99.90;;;;;;7330991;19;111100;-69
2023/10/12 09:55:24;;;;;;;;;;;19.50;99.90;;;;;;7328396;19;109872;-69
2023/10/12 09:57:52;;;;;;;;;;;19.60;99.90;;;;;;7333250;19;108731;-69
2023/10/12 10:00:53;;;;;;;;;;;19.50;99.90;;;;;;7335858;19;109240;-69
2023/10/12 10:03:17;;;;;;;;;;;19.50;99.90;;;;;;7334053;19;109922;-69
2023/10/12 10:06:19;;;;;;;;;;;19.50;99.90;;;;;;7333296;19;110052;-69
2023/10/12 10:08:45;;;;;;;;;;;19.50;99.90;;;;;;7332862;19;109734;-69
2023/10/12 10:11:14;;;;;;;;;;;19.50;99.90;;;;;;7331299;19;109914;-69
2023/10/12 10:13:51;;;;;;;;;;;19.50;99.90;;;;;;7334345;19;108923;-69
2023/10/12 10:16:19;;;;;;;;;;;19.40;99.90;;;;;;7332940;19;109034;-69
2023/10/12 10:19:10;;;;;;;;;;;19.40;99.90;;;;;;7334376;19;108660;-70
2023/10/12 10:21:38;;;;;;;;;;;19.30;99.90;;;;;;7338961;19;109338;-71
2023/10/12 10:24:15;;;;;;;;;;;19.20;99.90;;;;;;7329685;19;109354;-69
2023/10/12 10:26:43;;;;;;;;;;;19.30;99.90;;;;;;7330222;19;109088;-69
2023/10/12 10:29:17;;;;;;;;;;;19.20;99.90;;;;;;7331852;19;108961;-69
2023/10/12 10:31:50;;;;;;;;;;;19.20;99.90;;;;;;7333881;19;109880;-70
2023/10/12 10:34:24;;;;;;;;;;;19.20;99.90;;;;;;7332993;19;110011;-69
2023/10/12 10:36:53;;;;;;;;;;;19.20;99.90;;;;;;7331173;19;108826;-68
2023/10/12 10:44:26;;;;;;;;;;;19.40;99.90;;;;;;7337770;19;108988;-70
2023/10/12 10:46:57;;;;;;;;;;;19.50;99.90;;;;;;7330994;19;112479;-69
2023/10/12 10:49:33;;;;;;;;;;;19.60;99.90;;;;;;7331914;19;109080;-69
2023/10/12 10:54:32;;;;;;;;;;;19.90;99.90;;;;;;7329569;19;109274;-70
2023/10/12 10:57:04;;;;;;;;;;;20.00;99.90;;;;;;7330612;19;108458;-69
2023/10/12 10:59:33;;;;;;;;;;;20.10;99.90;;;;;;7330104;19;109188;-70
2023/10/12 11:02:00;;;;;;;;;;;20.20;99.90;;;;;;7330677;19;109214;-69
2023/10/12 11:07:04;;;;;;;;;;;20.40;99.90;;;;;;7337051;19;108698;-69
2023/10/12 11:09:48;;;;;;;;;;;20.50;99.90;;;;;;7329339;19;109782;-68
2023/10/12 11:12:16;;;;;;;;;;;20.60;99.90;;;;;;7332706;19;108972;-69
2023/10/12 11:14:58;;;;;;;;;;;20.70;99.90;;;;;;7330111;19;109564;-69
2023/10/12 11:17:30;;;;;;;;;;;20.80;99.90;;;;;;7326926;19;109620;-69
2023/10/12 11:20:00;;;;;;;;;;;20.80;99.90;;;;;;7332870;19;109051;-69
2023/10/12 11:22:28;;;;;;;;;;;20.90;99.90;;;;;;7327620;19;109748;-69
2023/10/12 11:24:57;;;;;;;;;;;20.90;99.90;;;;;;7328377;19;110087;-69
2023/10/12 11:27:31;;;;;;;;;;;20.90;99.90;;;;;;7329076;19;109291;-70
2023/10/12 11:30:07;;;;;;;;;;;20.90;99.90;;;;;;7335224;19;109216;-69
2023/10/12 11:32:54;;;;;;;;;;;20.80;99.90;;;;;;7326708;19;108893;-69
2023/10/12 11:35:34;;;;;;;;;;;20.80;99.90;;;;;;7327474;19;110068;-69
2023/10/12 11:38:02;;;;;;;;;;;20.70;99.90;;;;;;7333511;19;109892;-70
2023/10/12 11:40:32;;;;;;;;;;;20.70;99.90;;;;;;7335209;19;109021;-69
2023/10/12 11:42:59;;;;;;;;;;;20.70;99.90;;;;;;7337462;19;109233;-75
2023/10/12 11:45:32;;;;;;;;;;;20.60;99.90;;;;;;7334260;19;110299;-72
2023/10/12 11:48:20;;;;;;;;;;;20.60;99.90;;;;;;7331193;19;109627;-75
2023/10/12 11:50:48;;;;;;;;;;;20.60;99.90;;;;;;7333402;19;110001;-75
2023/10/12 11:53:17;;;;;;;;;;;20.50;99.90;;;;;;7341596;19;109006;-79
2023/10/12 11:55:44;;;;;;;;;;;20.50;99.90;;;;;;7333581;19;109241;-77
2023/10/12 11:58:16;;;;;;;;;;;20.40;99.90;;;;;;7331363;19;109435;-78
2023/10/12 12:00:50;;;;;;;;;;;20.40;99.90;;;;;;7334003;19;110303;-75
2023/10/12 12:03:17;;;;;;;;;;;20.40;99.90;;;;;;7336247;19;109267;-72
2023/10/12 12:05:50;;;;;;;;;;;20.30;99.90;;;;;;7338675;19;108817;-72
2023/10/12 12:08:18;;;;;;;;;;;20.40;99.90;;;;;;7337190;19;112698;-75
2023/10/12 12:13:20;;;;;;;;;;;20.40;99.90;;;;;;7337913;19;108881;-75
2023/10/12 12:15:47;;;;;;;;;;;20.30;99.90;;;;;;7340709;19;109647;-74
2023/10/12 12:18:19;;;;;;;;;;;20.40;99.90;;;;;;7335608;19;109351;-78
2023/10/12 12:20:49;;;;;;;;;;;20.50;99.90;;;;;;7336274;19;108947;-71
2023/10/12 12:23:17;;;;;;;;;;;20.60;99.90;;;;;;7337765;19;108867;-74
2023/10/12 12:25:44;;;;;;;;;;;20.60;99.90;;;;;;7339337;19;109147;-71
2023/10/12 12:28:15;;;;;;;;;;;20.70;99.90;;;;;;7336177;19;111890;-68
2023/10/12 12:30:46;;;;;;;;;;;20.70;99.90;;;;;;7330315;19;110131;-70
2023/10/12 12:33:17;;;;;;;;;;;20.80;99.90;;;;;;7335947;19;108894;-71
2023/10/12 12:35:45;;;;;;;;;;;20.80;99.90;;;;;;7338798;19;109882;-70
2023/10/12 12:40:55;;;;;;;;;;;20.70;99.90;;;;;;7336825;19;109378;-69
2023/10/12 12:43:24;;;;;;;;;;;20.70;99.90;;;;;;7335815;19;110205;-73
2023/10/12 12:45:54;;;;;;;;;;;20.60;99.90;;;;;;7337586;19;108766;-72
2023/10/12 12:48:21;;;;;;;;;;;20.60;99.90;;;;;;7334404;19;108639;-71
2023/10/12 12:50:48;;;;;;;;;;;20.60;99.90;;;;;;7331722;19;110770;-70
2023/10/12 12:53:19;;;;;;;;;;;20.60;99.90;;;;;;7336819;19;108943;-70
2023/10/12 12:55:46;;;;;;;;;;;20.50;99.90;;;;;;7336650;19;109105;-70
2023/10/12 12:58:17;;;;;;;;;;;20.50;99.90;;;;;;7341126;19;110707;-70
2023/10/12 13:00:48;;;;;;;;;;;20.40;99.90;;;;;;7335874;19;111113;-72
2023/10/12 13:03:16;;;;;;;;;;;20.30;99.90;;;;;;7336428;19;109922;-70
2023/10/12 13:05:43;;;;;;;;;;;20.30;99.90;;;;;;7332762;19;108639;-70
2023/10/12 13:08:11;;;;;;;;;;;20.30;99.90;;;;;;7335437;19;109341;-70
2023/10/12 13:10:38;;;;;;;;;;;20.20;99.90;;;;;;7335537;19;110165;-70
2023/10/12 13:13:06;;;;;;;;;;;20.20;99.90;;;;;;7336908;19;108935;-70
2023/10/12 13:15:41;;;;;;;;;;;20.20;99.90;;;;;;7333943;19;110777;-70
2023/10/12 13:18:14;;;;;;;;;;;20.20;99.90;;;;;;7332185;19;109975;-70
2023/10/12 13:20:49;;;;;;;;;;;20.20;99.90;;;;;;7340572;19;110125;-70
2023/10/12 13:23:21;;;;;;;;;;;20.20;99.90;;;;;;7333848;19;109136;-70
2023/10/12 13:25:50;;;;;;;;;;;20.20;99.90;;;;;;7337874;19;108781;-70
2023/10/12 13:28:17;;;;;;;;;;;20.20;99.90;;;;;;7337788;19;108733;-70
2023/10/12 13:30:45;;;;;;;;;;;20.30;99.90;;;;;;7330909;19;109178;-70
2023/10/12 13:33:12;;;;;;;;;;;20.40;99.90;;;;;;7336692;19;108860;-67
2023/10/12 13:35:42;;;;;;;;;;;20.40;99.90;;;;;;7333414;19;108840;-70
2023/10/12 13:38:10;;;;;;;;;;;20.40;99.90;;;;;;7334963;19;110393;-69
2023/10/12 13:40:42;;;;;;;;;;;20.50;99.90;;;;;;7332890;19;109139;-70
2023/10/12 13:43:18;;;;;;;;;;;20.40;99.90;;;;;;7339132;19;109593;-72
2023/10/12 13:45:48;;;;;;;;;;;20.40;99.90;;;;;;7328897;19;109553;-70
2023/10/12 13:48:18;;;;;;;;;;;20.40;99.90;;;;;;7335943;19;108810;-71
2023/10/12 13:50:53;;;;;;;;;;;20.40;99.90;;;;;;7333557;19;109505;-70
2023/10/12 13:53:20;;;;;;;;;;;20.40;99.90;;;;;;7331370;19;109051;-70
2023/10/12 13:55:47;;;;;;;;;;;20.30;99.90;;;;;;7333966;19;108877;-70
2023/10/12 13:58:15;;;;;;;;;;;20.20;99.90;;;;;;7329957;19;113937;-70
2023/10/12 14:00:44;;;;;;;;;;;20.20;99.90;;;;;;7332885;19;108936;-70
2023/10/12 14:03:11;;;;;;;;;;;20.10;99.90;;;;;;7331654;19;110348;-70
2023/10/12 14:05:40;;;;;;;;;;;20.00;99.90;;;;;;7342649;19;109145;-70
2023/10/12 14:08:10;;;;;;;;;;;20.00;99.90;;;;;;7334349;19;109730;-69
2023/10/12 14:10:44;;;;;;;;;;;20.00;99.90;;;;;;7332772;19;108813;-70
2023/10/12 14:13:13;;;;;;;;;;;19.90;99.90;;;;;;7331962;19;109289;-69
2023/10/12 14:15:44;;;;;;;;;;;19.80;99.90;;;;;;7330535;19;109164;-69
2023/10/12 14:18:16;;;;;;;;;;;19.70;99.90;;;;;;7331242;19;109975;-69
2023/10/12 14:20:44;;;;;;;;;;;19.70;99.90;;;;;;7333241;19;108387;-69
2023/10/12 14:23:12;;;;;;;;;;;19.60;99.90;;;;;;7329988;19;110258;-69
2023/10/12 14:25:42;;;;;;;;;;;19.60;99.90;;;;;;7328420;19;109380;-70
2023/10/12 14:28:10;;;;;;;;;;;19.60;99.90;;;;;;7335238;19;109117;-70
2023/10/12 14:30:38;;;;;;;;;;;19.50;99.90;;;;;;7328980;19;111178;-72
2023/10/12 14:33:06;;;;;;;;;;;19.50;99.90;;;;;;7329761;19;108680;-69
2023/10/12 14:35:38;;;;;;;;;;;19.40;99.90;;;;;;7328543;19;112777;-69
2023/10/12 14:38:13;;;;;;;;;;;19.40;99.90;;;;;;7332383;19;109132;-69
2023/10/12 14:40:42;;;;;;;;;;;19.40;99.90;;;;;;7331150;19;109372;-69
2023/10/12 14:43:11;;;;;;;;;;;19.30;99.90;;;;;;7329589;19;109488;-69
2023/10/12 14:45:43;;;;;;;;;;;19.30;99.90;;;;;;7331080;19;110543;-69
2023/10/12 14:48:11;;;;;;;;;;;19.30;99.90;;;;;;7335228;19;109367;-69
2023/10/12 14:50:43;;;;;;;;;;;19.30;99.90;;;;;;7331318;19;110190;-69
2023/10/12 14:53:10;;;;;;;;;;;19.30;99.90;;;;;;7333808;19;111152;-69
2023/10/12 14:55:40;;;;;;;;;;;19.30;99.90;;;;;;7332621;19;109023;-68
2023/10/12 14:58:09;;;;;;;;;;;19.30;99.90;;;;;;7330235;19;109934;-69
2023/10/12 15:00:37;;;;;;;;;;;19.30;99.90;;;;;;7327386;19;108815;-69
2023/10/12 15:03:04;;;;;;;;;;;19.30;99.90;;;;;;7329760;19;109092;-69
2023/10/12 15:05:36;;;;;;;;;;;19.20;99.90;;;;;;7327276;19;109911;-69
2023/10/12 15:08:07;;;;;;;;;;;19.20;99.90;;;;;;7329199;19;108916;-69
2023/10/12 15:10:43;;;;;;;;;;;19.30;99.90;;;;;;7335075;19;108394;-68
2023/10/12 15:13:14;;;;;;;;;;;19.20;99.90;;;;;;7330217;19;109388;-69
2023/10/12 15:15:45;;;;;;;;;;;19.20;99.90;;;;;;7336412;19;109942;-68
2023/10/12 15:18:16;;;;;;;;;;;19.20;99.90;;;;;;7336201;19;109710;-68
2023/10/12 15:20:44;;;;;;;;;;;19.20;99.90;;;;;;7335246;19;108488;-69
2023/10/12 15:23:12;;;;;;;;;;;19.20;99.90;;;;;;7335759;19;108662;-72
2023/10/12 15:25:39;;;;;;;;;;;19.20;99.90;;;;;;7338604;19;109922;-69
2023/10/12 15:28:12;;;;;;;;;;;19.20;99.90;;;;;;7337005;19;109430;-68
2023/10/12 15:30:42;;;;;;;;;;;19.20;99.90;;;;;;7337048;19;111478;-69
2023/10/12 15:33:10;;;;;;;;;;;19.10;99.90;;;;;;7343475;19;110259;-69
2023/10/12 15:35:37;;;;;;;;;;;19.10;99.90;;;;;;7337042;19;109867;-69
2023/10/12 15:38:04;;;;;;;;;;;19.20;99.90;;;;;;7334687;19;111211;-74
2023/10/12 15:40:37;;;;;;;;;;;19.30;99.90;;;;;;7334289;19;109413;-73
2023/10/12 15:43:05;;;;;;;;;;;19.60;99.90;;;;;;7330950;19;108830;-73
2023/10/12 15:45:32;;;;;;;;;;;19.80;99.90;;;;;;7329580;19;109658;-73
2023/10/12 15:48:03;;;;;;;;;;;20.00;99.90;;;;;;7336739;19;109391;-73
2023/10/12 15:50:31;;;;;;;;;;;20.10;99.90;;;;;;7326635;19;109385;-73
2023/10/12 15:52:58;;;;;;;;;;;20.10;99.90;;;;;;7339786;19;112041;-73
2023/10/12 15:55:26;;;;;;;;;;;20.20;99.90;;;;;;7337977;19;110159;-73
2023/10/12 15:57:53;;;;;;;;;;;20.10;99.90;;;;;;7337960;19;110494;-73
2023/10/12 16:00:24;;;;;;;;;;;20.00;99.90;;;;;;7337782;19;108708;-73
2023/10/12 16:02:55;;;;;;;;;;;20.00;99.90;;;;;;7338831;19;108872;-73
2023/10/12 16:05:28;;;;;;;;;;;20.00;99.90;;;;;;7333646;19;110585;-73
2023/10/12 16:07:56;;;;;;;;;;;20.00;99.90;;;;;;7337589;19;109501;-73
2023/10/12 16:10:27;;;;;;;;;;;20.00;99.90;;;;;;7337689;19;108783;-74
2023/10/12 16:12:56;;;;;;;;;;;20.00;99.90;;;;;;7338807;19;109784;-73
2023/10/12 16:15:27;;;;;;;;;;;20.00;99.90;;;;;;7331982;19;109837;-72
2023/10/12 16:17:57;;;;;;;;;;;20.00;99.90;;;;;;7340622;19;112348;-72
2023/10/12 16:20:25;;;;;;;;;;;19.90;99.90;;;;;;7334634;19;108728;-72
2023/10/12 16:22:53;;;;;;;;;;;20.00;99.90;;;;;;7337489;19;110011;-74
2023/10/12 16:25:20;;;;;;;;;;;20.00;99.90;;;;;;7328995;19;110111;-72
2023/10/12 16:27:48;;;;;;;;;;;19.90;99.90;;;;;;7336884;19;108608;-73
2023/10/12 16:30:19;;;;;;;;;;;19.90;99.90;;;;;;7336706;19;109163;-75
2023/10/12 16:32:48;;;;;;;;;;;19.90;99.90;;;;;;7335494;19;109536;-73
2023/10/12 16:35:20;;;;;;;;;;;19.90;99.90;;;;;;7335672;19;108814;-73
2023/10/12 16:37:48;;;;;;;;;;;19.90;99.90;;;;;;7342757;19;108620;-72
2023/10/12 16:40:15;;;;;;;;;;;19.90;99.90;;;;;;7336494;19;109524;-72